This is the latest recevied weather packets stored in our database for station/object DL9NEE-10. If no packets are shown the sender has not sent any weather packets the latest 10 day(s).
| Time | Temp. | Humidity | Pressure | Rain* | Wind** | Luminosity | Snow |
|---|---|---|---|---|---|---|---|
| 1777637099 | 27.78° C | 31% | 1028.1 hPa | - | - | - | - |
| 1777636199 | 27.78° C | 29% | 1028.2 hPa | - | - | - | - |
| 1777635299 | 27.22° C | 29% | 1028.3 hPa | - | - | - | - |
| 1777634399 | 30.56° C | 26% | 1028.5 hPa | - | - | - | - |
| 1777633499 | 23.89° C | 33% | 1028.6 hPa | - | - | - | - |
| 1777632598 | 22.78° C | 33% | 1028.7 hPa | - | - | - | - |
| 1777631698 | 22.22° C | 34% | 1028.8 hPa | - | - | - | - |
| 1777630798 | 21.11° C | 36% | 1029 hPa | - | - | - | - |
| 1777629898 | 20.56° C | 35% | 1029.1 hPa | - | - | - | - |
| 1777628998 | 20° C | 36% | 1029.1 hPa | - | - | - | - |
| 1777628097 | 19.44° C | 36% | 1029.2 hPa | - | - | - | - |
| 1777627197 | 18.89° C | 36% | 1029.3 hPa | - | - | - | - |
| 1777626297 | 18.33° C | 37% | 1029.4 hPa | - | - | - | - |
| 1777625397 | 17.78° C | 38% | 1029.4 hPa | - | - | - | - |
| 1777624497 | 16.67° C | 38% | 1029.4 hPa | - | - | - | - |
| 1777623597 | 16.11° C | 39% | 1029.4 hPa | - | - | - | - |
| 1777622696 | 15.56° C | 40% | 1029.4 hPa | - | - | - | - |
| 1777621797 | 14.44° C | 44% | 1029.5 hPa | - | - | - | - |
| 1777620896 | 13.89° C | 44% | 1029.4 hPa | - | - | - | - |
| 1777619996 | 12.78° C | 45% | 1029.5 hPa | - | - | - | - |
| 1777619096 | 12.22° C | 46% | 1029.5 hPa | - | - | - | - |
| 1777618196 | 11.11° C | 46% | 1029.5 hPa | - | - | - | - |
| 1777617296 | 10.56° C | 46% | 1029.5 hPa | - | - | - | - |
| 1777616396 | 10° C | 47% | 1029.5 hPa | - | - | - | - |
| 1777615496 | 9.44° C | 47% | 1029.5 hPa | - | - | - | - |
* Rain since midnight (hover to see other rain measurements)
** Current wind speed in m/s (hover to see current wind gust speed)